Time;durP1;ratioP1;P1;durP2;ratioP2;P2;SDS_P1;SDS_P2;PMS_P1;PMS_P2;Temp;Humidity;BMP_temperature;BMP_pressure;BME280_temperature;BME280_humidity;BME280_pressure;Samples;Min_cycle;Max_cycle;Signal;HPM_P1;HPM_P2
2021/08/18 00:01:48;;;;;;;9.32;2.42;;;;;;;14.41;87.92;101796.88;5051734;28;20036;-74
2021/08/18 00:04:13;;;;;;;4.57;2.17;;;;;;;14.42;88.19;101787.84;5051012;28;20029;-74
2021/08/18 00:06:39;;;;;;;4.95;2.25;;;;;;;14.42;88.30;101785.16;5051403;28;20040;-75
2021/08/18 00:09:05;;;;;;;8.35;2.40;;;;;;;14.42;88.27;101790.53;5052213;28;20080;-75
2021/08/18 00:11:30;;;;;;;10.32;2.53;;;;;;;14.40;88.73;101790.66;5053400;28;20032;-75
2021/08/18 00:13:56;;;;;;;9.15;2.50;;;;;;;14.41;88.73;101792.38;5055744;28;20032;-74
2021/08/18 00:16:24;;;;;;;5.35;2.35;;;;;;;14.42;89.00;101788.72;5056149;28;20033;-74
2021/08/18 00:18:52;;;;;;;8.60;2.60;;;;;;;14.42;88.71;101786.03;5054182;28;20032;-75
2021/08/18 00:21:22;;;;;;;6.20;2.60;;;;;;;14.45;88.86;101788.44;5055973;28;20048;-74
2021/08/18 00:23:48;;;;;;;8.02;2.38;;;;;;;14.48;88.81;101791.78;5055469;28;20465;-74
2021/08/18 00:26:14;;;;;;;11.25;2.63;;;;;;;14.47;88.76;101782.94;5055994;28;20108;-74
2021/08/18 00:28:39;;;;;;;10.20;2.58;;;;;;;14.48;88.93;101786.44;5055344;28;20036;-75
2021/08/18 00:31:05;;;;;;;11.13;2.95;;;;;;;14.48;88.76;101789.13;5055639;28;20037;-74
2021/08/18 00:33:31;;;;;;;5.55;2.22;;;;;;;14.51;87.49;101786.16;5055882;28;20037;-74
2021/08/18 00:35:57;;;;;;;5.63;2.50;;;;;;;14.53;87.55;101789.56;5055238;28;20031;-74
2021/08/18 00:38:22;;;;;;;8.98;2.70;;;;;;;14.55;87.57;101787.56;5055913;28;20120;-74
2021/08/18 00:40:47;;;;;;;5.93;2.20;;;;;;;14.57;87.24;101786.44;5055031;28;20033;-74
2021/08/18 00:43:15;;;;;;;6.78;2.40;;;;;;;14.57;87.87;101782.91;5054453;28;20411;-74
2021/08/18 00:45:40;;;;;;;8.57;2.20;;;;;;;14.57;87.26;101791.81;5055063;28;20036;-75
2021/08/18 00:48:06;;;;;;;6.13;2.10;;;;;;;14.58;87.34;101779.25;5055633;28;20036;-74
2021/08/18 00:50:31;;;;;;;5.40;2.28;;;;;;;14.57;87.86;101785.59;5055542;28;20037;-74
2021/08/18 00:52:57;;;;;;;6.43;2.05;;;;;;;14.57;87.18;101777.53;5054901;28;20032;-74
2021/08/18 00:55:24;;;;;;;10.18;2.33;;;;;;;14.58;87.37;101779.25;5055621;28;20048;-74
2021/08/18 00:57:51;;;;;;;6.90;2.22;;;;;;;14.57;87.70;101782.91;5054585;28;20507;-75
2021/08/18 01:00:18;;;;;;;3.72;1.95;;;;;;;14.58;87.26;101780.09;5055176;28;20055;-73
2021/08/18 01:02:46;;;;;;;9.18;2.47;;;;;;;14.58;87.45;101773.88;5054663;28;20422;-74
2021/08/18 01:05:20;;;;;;;5.18;2.00;;;;;;;14.57;87.16;101781.09;5055173;28;20482;-74
2021/08/18 01:07:47;;;;;;;12.45;2.97;;;;;;;14.56;87.12;101776.72;5054627;28;20037;-74
2021/08/18 01:10:23;;;;;;;7.03;2.10;;;;;;;14.58;86.50;101765.84;5054163;28;20037;-74
2021/08/18 01:12:49;;;;;;;5.85;1.88;;;;;;;14.60;86.85;101770.09;5054651;28;20036;-74
2021/08/18 01:15:17;;;;;;;7.60;2.30;;;;;;;14.62;86.38;101768.13;5055078;28;20041;-74
2021/08/18 01:17:46;;;;;;;6.28;2.35;;;;;;;14.66;86.27;101776.75;5055080;28;20036;-74
2021/08/18 01:20:14;;;;;;;3.45;2.15;;;;;;;14.65;86.42;101768.84;5055105;28;20035;-74
2021/08/18 01:22:40;;;;;;;5.88;2.35;;;;;;;14.64;86.46;101784.06;5054242;28;20056;-73
2021/08/18 01:25:07;;;;;;;9.65;2.20;;;;;;;14.65;87.10;101779.56;5054373;28;20124;-74
2021/08/18 01:27:35;;;;;;;5.68;1.90;;;;;;;14.65;86.45;101772.38;5054546;28;20058;-73
2021/08/18 01:30:01;;;;;;;8.10;2.15;;;;;;;14.68;87.24;101781.97;5053940;28;20461;-73
2021/08/18 01:32:26;;;;;;;5.63;2.28;;;;;;;14.68;86.75;101779.28;5054869;28;20091;-74
2021/08/18 01:34:51;;;;;;;4.82;2.08;;;;;;;14.65;86.76;101777.72;5052955;28;20041;-74
2021/08/18 01:37:17;;;;;;;4.20;2.35;;;;;;;14.65;86.91;101777.72;5054436;28;20064;-73
2021/08/18 01:39:42;;;;;;;10.43;2.35;;;;;;;14.65;86.77;101784.94;5054554;28;20500;-72
2021/08/18 01:42:07;;;;;;;5.35;2.05;;;;;;;14.62;87.24;101778.84;5053962;28;20033;-74
2021/08/18 01:44:33;;;;;;;11.15;2.08;;;;;;;14.60;87.16;101782.63;5054622;28;20036;-74
2021/08/18 01:46:59;;;;;;;7.53;2.10;;;;;;;14.60;87.37;101779.94;5053903;28;20103;-73
2021/08/18 01:49:27;;;;;;;10.20;2.30;;;;;;;14.61;86.50;101781.66;5054614;28;20036;-74
2021/08/18 01:51:52;;;;;;;9.45;2.17;;;;;;;14.62;86.91;101778.84;5053790;28;20124;-74
2021/08/18 01:54:17;;;;;;;5.47;2.08;;;;;;;14.61;86.76;101774.50;5054355;28;20123;-73
2021/08/18 01:56:43;;;;;;;6.35;2.20;;;;;;;14.60;87.09;101774.59;5054225;28;20033;-73
2021/08/18 01:59:08;;;;;;;4.38;2.10;;;;;;;14.58;86.72;101771.22;5052146;28;20033;-73
2021/08/18 02:01:34;;;;;;;6.45;1.92;;;;;;;14.58;86.87;101776.56;5054448;28;20411;-73
2021/08/18 02:03:59;;;;;;;7.68;2.10;;;;;;;14.56;87.12;101774.03;5053272;28;20028;-73
2021/08/18 02:06:25;;;;;;;7.00;1.88;;;;;;;14.55;88.07;101771.50;5054159;28;20032;-74
2021/08/18 02:08:50;;;;;;;3.85;2.05;;;;;;;14.53;87.50;101777.00;5053209;28;20485;-74
2021/08/18 02:11:15;;;;;;;6.35;2.00;;;;;;;14.53;87.68;101768.13;5053780;28;20040;-73
2021/08/18 02:13:41;;;;;;;8.32;1.88;;;;;;;14.51;87.63;101770.94;5053980;28;20033;-73
2021/08/18 02:16:06;;;;;;;11.98;1.98;;;;;;;14.49;87.96;101772.06;5053355;28;20239;-72
2021/08/18 02:18:33;;;;;;;3.40;1.67;;;;;;;14.50;87.56;101774.59;5053578;28;20040;-73
2021/08/18 02:20:58;;;;;;;14.88;2.25;;;;;;;14.51;87.92;101775.44;5052734;28;20469;-73
2021/08/18 02:23:24;;;;;;;7.35;2.17;;;;;;;14.51;87.78;101776.31;5053849;28;20040;-75
2021/08/18 02:25:50;;;;;;;8.77;2.40;;;;;;;14.50;87.68;101774.59;5053289;28;20029;-73
2021/08/18 02:28:16;;;;;;;5.60;1.95;;;;;;;14.52;87.48;101769.94;5053715;28;20137;-73
2021/08/18 02:30:42;;;;;;;7.43;2.17;;;;;;;14.55;87.16;101768.81;5053626;28;20108;-73
2021/08/18 02:33:08;;;;;;;10.82;1.80;;;;;;;14.56;86.97;101773.19;5052996;28;20036;-73
2021/08/18 02:35:34;;;;;;;7.72;2.10;;;;;;;14.55;87.26;101766.97;5052799;28;20440;-74
2021/08/18 02:38:02;;;;;;;5.25;2.38;;;;;;;14.54;87.28;101764.44;5068270;28;20032;-73
2021/08/18 02:40:29;;;;;;;5.07;1.90;;;;;;;14.54;87.30;101765.31;5051998;28;20534;-73
2021/08/18 02:42:56;;;;;;;6.65;2.30;;;;;;;14.53;87.30;101763.59;5052872;28;20024;-73
2021/08/18 02:45:23;;;;;;;9.25;1.98;;;;;;;14.51;87.60;101768.28;5053363;28;20033;-73
2021/08/18 02:47:49;;;;;;;8.38;2.22;;;;;;;14.52;87.09;101761.91;5052962;28;20477;-73
2021/08/18 02:50:17;;;;;;;6.63;2.40;;;;;;;14.52;87.31;101761.91;5052633;28;20035;-73
2021/08/18 02:52:43;;;;;;;5.65;2.30;;;;;;;14.49;87.31;101758.69;5053100;28;20043;-73
2021/08/18 02:55:09;;;;;;;3.78;2.05;;;;;;;14.46;87.85;101763.34;5052175;28;20535;-73
2021/08/18 02:57:35;;;;;;;5.38;2.22;;;;;;;14.41;87.66;101754.88;5053129;28;20052;-74
2021/08/18 03:00:00;;;;;;;8.77;2.50;;;;;;;14.41;87.63;101756.72;5052188;28;20457;-74
2021/08/18 03:02:27;;;;;;;7.43;2.00;;;;;;;14.39;87.96;101754.19;5053032;28;20033;-74
2021/08/18 03:04:52;;;;;;;7.20;2.20;;;;;;;14.38;87.49;101765.03;5053155;28;20025;-73
2021/08/18 03:07:18;;;;;;;9.25;2.60;;;;;;;14.37;87.52;101761.50;5050989;28;20031;-74
2021/08/18 03:09:43;;;;;;;6.15;2.40;;;;;;;14.38;87.79;101762.38;5052897;28;20382;-74
2021/08/18 03:12:09;;;;;;;6.70;2.20;;;;;;;14.39;87.27;101766.72;5052197;28;20044;-74
2021/08/18 03:14:34;;;;;;;8.85;2.67;;;;;;;14.38;87.71;101763.19;5052776;28;20037;-74
2021/08/18 03:17:00;;;;;;;10.38;2.55;;;;;;;14.39;87.58;101767.56;5067237;28;20595;-73
2021/08/18 03:19:25;;;;;;;8.65;2.70;;;;;;;14.40;87.29;101771.09;5052617;28;20126;-74
2021/08/18 03:21:51;;;;;;;6.70;2.58;;;;;;;14.42;86.88;101766.44;5052587;28;20131;-73
2021/08/18 03:24:16;;;;;;;11.80;2.45;;;;;;;14.43;87.41;101763.59;5051665;28;20047;-73
2021/08/18 03:26:42;;;;;;;4.57;2.03;;;;;;;14.46;87.21;101768.72;5053022;28;20461;-73
2021/08/18 03:29:07;;;;;;;8.73;2.45;;;;;;;14.46;87.18;101766.03;5051605;28;20124;-73
2021/08/18 03:31:33;;;;;;;8.10;2.50;;;;;;;14.44;87.85;101770.66;5051613;28;20037;-73
2021/08/18 03:33:58;;;;;;;5.50;2.03;;;;;;;14.44;87.53;101757.28;5052264;28;20029;-73
2021/08/18 03:36:24;;;;;;;6.05;2.05;;;;;;;14.43;87.51;101760.94;5052492;28;20032;-73
2021/08/18 03:38:49;;;;;;;6.60;2.38;;;;;;;14.45;87.18;101764.31;5052420;28;20098;-73
2021/08/18 03:41:15;;;;;;;4.43;2.22;;;;;;;14.45;87.74;101763.47;5051843;28;20025;-73
2021/08/18 03:43:40;;;;;;;11.73;2.47;;;;;;;14.42;87.15;101764.63;5052429;28;20036;-73
2021/08/18 03:46:06;;;;;;;6.00;2.70;;;;;;;14.42;87.35;101763.75;5051888;28;20082;-74
2021/08/18 03:48:31;;;;;;;6.32;2.55;;;;;;;14.42;87.18;101755.72;5052648;28;20029;-74
2021/08/18 03:50:56;;;;;;;10.02;2.47;;;;;;;14.42;87.70;101761.94;5052601;28;20485;-73
2021/08/18 03:53:22;;;;;;;11.30;2.83;;;;;;;14.40;87.90;101761.22;5051874;28;20029;-73
2021/08/18 03:55:47;;;;;;;12.60;2.60;;;;;;;14.41;87.53;101764.75;5052499;28;20036;-73
2021/08/18 03:58:13;;;;;;;5.20;2.30;;;;;;;14.40;87.67;101757.69;5051907;28;20032;-74
2021/08/18 04:00:38;;;;;;;8.48;2.53;;;;;;;14.40;87.76;101758.53;5052193;28;20491;-73
2021/08/18 04:03:04;;;;;;;7.63;2.65;;;;;;;14.38;88.37;101760.53;5051445;28;20484;-74
2021/08/18 04:05:30;;;;;;;5.70;2.80;;;;;;;14.37;88.17;101763.34;5052487;28;20040;-74
2021/08/18 04:07:55;;;;;;;3.85;2.47;;;;;;;14.35;88.49;101762.66;5052351;28;20037;-74
2021/08/18 04:10:21;;;;;;;5.82;2.88;;;;;;;14.34;88.36;101760.94;5051710;28;20095;-74
2021/08/18 04:12:54;;;;;;;7.55;2.70;;;;;;;14.34;88.63;101758.28;5052210;28;20036;-74
2021/08/18 04:15:21;;;;;;;5.90;2.47;;;;;;;14.34;88.72;101761.78;5051977;28;20095;-74
2021/08/18 04:17:47;;;;;;;5.38;2.72;;;;;;;14.34;88.44;101756.44;5052193;28;20201;-73
2021/08/18 04:20:13;;;;;;;4.88;2.53;;;;;;;14.35;88.49;101751.94;5051567;28;20587;-73
2021/08/18 04:22:40;;;;;;;8.70;2.70;;;;;;;14.37;87.96;101753.47;5052189;28;20037;-74
2021/08/18 04:25:10;;;;;;;9.23;3.05;;;;;;;14.38;87.94;101752.50;5051182;28;20037;-74
2021/08/18 04:27:35;;;;;;;9.10;2.95;;;;;;;14.37;88.42;101756.16;5052119;28;20028;-73
2021/08/18 04:30:01;;;;;;;9.35;2.83;;;;;;;14.37;87.93;101749.97;5052033;28;20048;-73
2021/08/18 04:32:26;;;;;;;4.75;2.85;;;;;;;14.39;87.99;101750.66;5051113;28;20033;-74
2021/08/18 04:34:51;;;;;;;6.57;2.90;;;;;;;14.41;88.11;101748.69;5052106;28;20495;-74
2021/08/18 04:37:17;;;;;;;3.22;2.58;;;;;;;14.42;87.62;101753.91;5051346;28;20385;-73
2021/08/18 04:39:42;;;;;;;6.63;2.72;;;;;;;14.42;88.23;101753.03;5051850;28;20036;-73
2021/08/18 04:42:07;;;;;;;8.13;3.28;;;;;;;14.40;88.69;101753.19;5051283;28;20043;-74
2021/08/18 04:44:33;;;;;;;6.18;2.67;;;;;;;14.37;89.08;101753.47;5051924;28;20398;-74
2021/08/18 04:46:58;;;;;;;4.15;2.72;;;;;;;14.39;88.66;101754.19;5051875;28;20496;-75
2021/08/18 04:49:23;;;;;;;6.40;3.08;;;;;;;14.44;88.10;101757.28;5051309;28;20701;-72
2021/08/18 04:51:49;;;;;;;8.98;2.95;;;;;;;14.48;87.73;101755.19;5051761;28;20492;-74
2021/08/18 04:54:14;;;;;;;8.05;2.90;;;;;;;14.49;88.15;101754.16;5051005;28;20091;-73
2021/08/18 04:56:39;;;;;;;4.82;2.92;;;;;;;14.48;88.45;101749.81;5051874;28;20036;-73
2021/08/18 04:59:05;;;;;;;7.75;2.60;;;;;;;14.53;88.04;101750.22;5054831;28;20107;-74
2021/08/18 05:01:30;;;;;;;8.38;2.83;;;;;;;14.58;87.98;101747.94;5054756;28;20033;-72
2021/08/18 05:03:56;;;;;;;5.50;2.50;;;;;;;14.62;87.70;101748.56;5054941;28;20025;-72
2021/08/18 05:06:21;;;;;;;7.25;2.97;;;;;;;14.64;87.67;101743.88;5057146;28;20052;-72
2021/08/18 05:08:46;;;;;;;6.80;2.90;;;;;;;14.68;87.41;101734.59;5054991;28;20037;-74
2021/08/18 05:11:12;;;;;;;7.03;2.80;;;;;;;14.71;87.79;101728.09;5052792;28;20037;-75
2021/08/18 05:13:37;;;;;;;16.50;2.85;;;;;;;14.74;87.26;101725.97;5051881;28;20079;-75
2021/08/18 05:16:02;;;;;;;6.55;2.85;;;;;;;14.77;86.99;101725.66;5052357;28;20037;-75
2021/08/18 05:18:28;;;;;;;8.85;3.10;;;;;;;14.81;87.37;101732.44;5054631;28;20384;-75
2021/08/18 05:20:53;;;;;;;5.25;2.67;;;;;;;14.83;86.87;101734.13;5053140;28;20029;-77
2021/08/18 05:23:20;;;;;;;5.38;2.70;;;;;;;14.86;86.98;101728.50;5051610;28;20418;-75
2021/08/18 05:25:46;;;;;;;6.75;2.60;;;;;;;14.88;87.17;101729.16;5052321;28;20041;-76
2021/08/18 05:28:13;;;;;;;7.18;3.05;;;;;;;14.89;87.06;101726.34;5051974;28;20766;-77
2021/08/18 05:30:39;;;;;;;7.45;2.97;;;;;;;14.92;86.53;101731.41;5052004;28;20083;-76
2021/08/18 05:33:04;;;;;;;7.22;2.72;;;;;;;14.94;86.62;101729.44;5052018;28;20041;-74
2021/08/18 05:35:30;;;;;;;6.00;2.85;;;;;;;14.97;86.40;101734.50;5051016;28;20043;-78
2021/08/18 05:37:55;;;;;;;5.85;2.95;;;;;;;14.99;86.64;101734.38;5052087;28;20115;-75
2021/08/18 05:40:20;;;;;;;9.75;2.85;;;;;;;15.01;86.17;101735.06;5051687;28;20044;-75
2021/08/18 05:42:46;;;;;;;5.72;2.70;;;;;;;15.06;85.92;101727.44;5051899;28;20045;-77
2021/08/18 05:45:11;;;;;;;8.15;3.28;;;;;;;15.10;85.69;101726.13;5051327;28;20049;-75
2021/08/18 05:47:37;;;;;;;7.97;2.90;;;;;;;15.15;85.32;101731.91;5051529;28;20408;-76
2021/08/18 05:50:03;;;;;;;3.78;2.60;;;;;;;15.20;84.69;101727.91;5051647;28;20098;-76
2021/08/18 05:52:28;;;;;;;8.25;2.70;;;;;;;15.23;84.97;101727.66;5051191;28;20087;-76
2021/08/18 05:54:53;;;;;;;6.57;2.63;;;;;;;15.26;84.79;101730.88;5051554;28;20385;-76
2021/08/18 05:57:19;;;;;;;5.07;2.75;;;;;;;15.32;84.84;101737.47;5050804;28;20102;-76
2021/08/18 05:59:44;;;;;;;5.72;2.60;;;;;;;15.33;84.44;101728.41;5050970;28;20067;-75
2021/08/18 06:02:10;;;;;;;4.40;2.55;;;;;;;15.36;84.55;101733.50;5051777;28;20119;-76
2021/08/18 06:04:35;;;;;;;7.60;2.55;;;;;;;15.41;84.14;101735.75;5050876;28;20065;-78
2021/08/18 06:07:00;;;;;;;6.25;3.00;;;;;;;15.43;84.41;101736.44;5051158;28;20554;-76
2021/08/18 06:09:26;;;;;;;6.65;2.85;;;;;;;15.45;84.34;101735.28;5048498;28;20453;-75
2021/08/18 06:11:51;;;;;;;7.93;2.85;;;;;;;15.45;84.25;101737.97;5051031;28;20432;-74
2021/08/18 06:14:16;;;;;;;6.22;2.45;;;;;;;15.48;84.37;101734.13;5050695;28;20036;-75
2021/08/18 06:16:42;;;;;;;5.82;3.00;;;;;;;15.53;84.45;101734.53;5051226;28;20040;-75
2021/08/18 06:19:08;;;;;;;7.38;3.10;;;;;;;15.56;84.17;101738.78;5051058;28;20042;-75
2021/08/18 06:21:33;;;;;;;6.85;2.85;;;;;;;15.57;84.50;101741.31;5050553;28;20266;-75
2021/08/18 06:24:07;;;;;;;5.28;3.00;;;;;;;15.61;84.21;101744.50;5050335;28;20039;-76
2021/08/18 06:26:32;;;;;;;5.38;3.00;;;;;;;15.63;84.27;101742.50;5050352;28;20036;-75
2021/08/18 06:28:57;;;;;;;5.65;3.13;;;;;;;15.68;84.52;101734.88;5049782;28;20507;-76
2021/08/18 06:31:23;;;;;;;8.73;2.90;;;;;;;15.75;83.60;101740.47;5049902;28;20499;-75
2021/08/18 06:33:49;;;;;;;7.68;3.15;;;;;;;15.83;83.97;101737.91;5032517;28;20036;-75
2021/08/18 06:36:17;;;;;;;11.00;2.85;;;;;;;15.89;83.17;101745.34;5049831;28;20061;-74
2021/08/18 06:38:42;;;;;;;6.38;3.40;;;;;;;15.94;83.38;101740.38;5050520;28;20037;-75
2021/08/18 06:41:08;;;;;;;5.63;2.90;;;;;;;15.97;83.50;101741.91;5050413;28;20039;-72
2021/08/18 06:43:33;;;;;;;9.70;3.40;;;;;;;15.96;83.77;101738.38;5049930;28;20072;-73
2021/08/18 06:45:58;;;;;;;4.20;3.20;;;;;;;15.98;83.67;101740.91;5050305;28;20044;-75
2021/08/18 06:48:26;;;;;;;7.88;3.58;;;;;;;16.02;83.84;101742.31;5049550;28;20079;-78
2021/08/18 06:50:51;;;;;;;5.32;3.10;;;;;;;16.11;83.69;101744.06;5050653;28;20037;-78
2021/08/18 06:53:16;;;;;;;3.53;2.83;;;;;;;16.20;83.42;101745.81;5049951;28;20529;-81
2021/08/18 06:55:42;;;;;;;5.75;3.60;;;;;;;16.31;82.34;101742.06;5047933;28;20025;-77
2021/08/18 06:58:07;;;;;;;6.60;3.35;;;;;;;16.39;81.80;101747.50;5052549;28;20043;-77
2021/08/18 07:00:33;;;;;;;4.80;3.00;;;;;;;16.49;81.50;101752.78;5051908;28;20045;-78
2021/08/18 07:02:58;;;;;;;6.57;3.30;;;;;;;16.58;80.86;101740.25;5052815;28;20047;-77
2021/08/18 07:05:24;;;;;;;3.65;3.30;;;;;;;16.63;80.93;101745.16;5052499;28;20033;-75
2021/08/18 07:07:49;;;;;;;5.35;3.05;;;;;;;16.73;81.47;101737.84;5052985;28;20033;-75
2021/08/18 07:10:15;;;;;;;7.13;3.83;;;;;;;16.82;81.33;101747.63;5052554;28;20071;-75
2021/08/18 07:12:41;;;;;;;6.93;3.60;;;;;;;16.88;80.42;101744.38;5052258;28;20029;-74
2021/08/18 07:15:07;;;;;;;11.43;3.80;;;;;;;16.94;80.03;101739.34;5052648;28;20508;-73
2021/08/18 07:17:33;;;;;;;9.27;4.00;;;;;;;16.97;79.01;101742.53;5051804;28;20035;-76
2021/08/18 07:19:59;;;;;;;5.53;3.85;;;;;;;17.03;78.90;101744.63;5051826;28;20032;-74
2021/08/18 07:22:25;;;;;;;11.60;4.78;;;;;;;17.02;79.16;101747.47;5051438;28;20033;-76
2021/08/18 07:24:51;;;;;;;7.90;4.60;;;;;;;17.03;79.07;101743.75;5051197;28;20137;-75
2021/08/18 07:27:17;;;;;;;8.70;4.43;;;;;;;17.04;79.33;101742.75;5052655;28;20068;-73
2021/08/18 07:29:42;;;;;;;8.90;4.15;;;;;;;17.14;79.55;101742.63;5050834;28;20059;-74
2021/08/18 07:32:08;;;;;;;10.63;4.60;;;;;;;17.15;79.76;101739.78;5052326;28;20461;-72
2021/08/18 07:34:34;;;;;;;5.78;4.57;;;;;;;17.21;78.41;101743.69;5052894;28;20035;-73
2021/08/18 07:37:00;;;;;;;8.52;4.65;;;;;;;17.30;77.77;101745.41;5067928;28;20430;-73
2021/08/18 07:39:25;;;;;;;7.05;4.80;;;;;;;17.38;78.20;101741.91;5051894;28;20029;-73
2021/08/18 07:41:51;;;;;;;5.47;4.43;;;;;;;17.41;77.88;101737.03;5052224;28;20083;-73
2021/08/18 07:44:16;;;;;;;8.93;5.00;;;;;;;17.35;76.90;101745.78;5052583;28;20040;-74
2021/08/18 07:46:44;;;;;;;6.97;4.50;;;;;;;17.32;77.11;101735.34;5051827;28;20032;-73
2021/08/18 07:49:09;;;;;;;8.07;4.38;;;;;;;17.38;78.06;101733.84;5067685;28;20388;-73
2021/08/18 07:51:34;;;;;;;8.25;4.32;;;;;;;17.45;78.90;101735.72;5051956;28;20112;-72
2021/08/18 07:54:00;;;;;;;7.60;5.00;;;;;;;17.49;77.68;101733.53;5052273;28;20441;-74
2021/08/18 07:56:26;;;;;;;4.55;4.13;;;;;;;17.56;76.43;101734.56;5051925;28;20063;-74
2021/08/18 07:58:51;;;;;;;7.80;4.88;;;;;;;17.48;77.30;101733.69;5067586;28;20037;-73
2021/08/18 08:01:17;;;;;;;7.80;4.60;;;;;;;17.40;76.63;101737.22;5051591;28;20374;-73
2021/08/18 08:03:42;;;;;;;9.40;5.00;;;;;;;17.33;78.32;101731.66;5051904;28;20060;-72
2021/08/18 08:06:07;;;;;;;8.20;4.68;;;;;;;17.30;76.47;101728.44;5052362;28;20061;-73
2021/08/18 08:08:33;;;;;;;8.23;4.68;;;;;;;17.17;76.55;101735.09;5051801;28;20381;-71
2021/08/18 08:10:58;;;;;;;7.13;4.55;;;;;;;17.04;77.41;101738.22;5054049;28;20051;-71
2021/08/18 08:13:23;;;;;;;7.40;4.80;;;;;;;16.90;77.79;101734.28;5053511;28;20033;-71
2021/08/18 08:15:49;;;;;;;6.50;5.18;;;;;;;16.84;78.63;101740.28;5052581;28;20377;-72
2021/08/18 08:18:14;;;;;;;9.30;5.18;;;;;;;16.79;79.22;101734.50;5052164;28;20078;-72
2021/08/18 08:20:40;;;;;;;9.20;5.38;;;;;;;16.79;78.96;101737.19;5051860;28;20036;-71
2021/08/18 08:23:05;;;;;;;12.63;6.05;;;;;;;16.73;79.49;101743.22;5052230;28;20037;-72
2021/08/18 08:25:32;;;;;;;10.45;6.25;;;;;;;16.74;79.32;101739.53;5051271;28;20045;-72
2021/08/18 08:27:57;;;;;;;10.73;6.45;;;;;;;16.73;79.88;101737.84;5052118;28;20033;-73
2021/08/18 08:30:23;;;;;;;9.55;6.35;;;;;;;16.69;79.88;101741.81;5051874;28;20041;-74
2021/08/18 08:32:49;;;;;;;12.60;5.90;;;;;;;16.69;80.29;101747.19;5052578;28;20517;-72
2021/08/18 08:35:15;;;;;;;13.68;7.00;;;;;;;16.62;81.10;101747.00;5055870;28;20029;-74
2021/08/18 08:37:40;;;;;;;13.00;6.93;;;;;;;16.50;82.38;101745.56;5054995;28;20520;-73
2021/08/18 08:40:06;;;;;;;12.55;7.45;;;;;;;16.37;83.13;101744.09;5055721;28;20127;-73
2021/08/18 08:42:32;;;;;;;15.65;7.72;;;;;;;16.34;83.12;101746.28;5055259;28;20454;-73
2021/08/18 08:45:00;;;;;;;12.68;7.50;;;;;;;16.36;82.99;101750.50;5054680;28;20396;-72
2021/08/18 08:47:25;;;;;;;18.02;8.32;;;;;;;16.45;81.75;101754.09;5055151;28;20473;-72
2021/08/18 08:49:51;;;;;;;15.93;7.55;;;;;;;16.53;81.33;101753.31;5054827;28;20313;-73
2021/08/18 08:52:16;;;;;;;12.15;7.65;;;;;;;16.64;81.70;101747.69;5055618;28;20056;-73
2021/08/18 08:54:45;;;;;;;10.35;7.32;;;;;;;16.72;80.89;101746.91;5054859;28;20041;-73
2021/08/18 08:57:11;;;;;;;14.73;7.78;;;;;;;16.79;79.62;101742.56;5055654;28;20072;-73
2021/08/18 08:59:38;;;;;;;11.23;6.70;;;;;;;16.81;79.80;101740.59;5054978;28;20140;-73
2021/08/18 09:02:06;;;;;;;11.38;7.35;;;;;;;16.89;80.51;101747.88;5055407;28;20037;-71
2021/08/18 09:04:43;;;;;;;16.95;6.90;;;;;;;16.91;79.07;101743.19;5055026;28;20473;-74
2021/08/18 09:07:13;;;;;;;18.08;7.65;;;;;;;16.96;79.67;101743.56;5055257;28;20469;-73
2021/08/18 09:09:50;;;;;;;12.43;6.45;;;;;;;17.04;78.67;101745.44;5054513;28;20477;-74
2021/08/18 09:12:18;;;;;;;12.57;6.50;;;;;;;17.12;78.14;101739.28;5055388;28;20021;-72
2021/08/18 09:14:44;;;;;;;9.45;6.55;;;;;;;17.18;77.63;101744.00;5053419;28;20121;-74
2021/08/18 09:17:31;;;;;;;10.68;6.50;;;;;;;17.30;78.30;101745.41;5055036;28;20107;-73
2021/08/18 09:20:12;;;;;;;15.25;8.30;;;;;;;17.36;78.56;101742.09;5054365;28;20111;-73
2021/08/18 09:22:55;;;;;;;11.77;5.88;;;;;;;17.43;77.50;101742.25;5054497;28;20029;-75
2021/08/18 09:25:29;;;;;;;13.45;5.90;;;;;;;17.34;76.68;101738.69;5054947;28;20044;-74
2021/08/18 09:28:00;;;;;;;14.27;6.10;;;;;;;17.32;76.58;101742.56;5054002;28;20060;-73
2021/08/18 09:30:27;;;;;;;;;;;;;;;17.35;76.98;101747.63;5055015;28;20032;-73
2021/08/18 09:32:55;;;;;;;12.27;5.70;;;;;;;17.35;76.42;101740.38;5054135;28;19920;-73
2021/08/18 09:35:23;;;;;;;9.88;5.22;;;;;;;17.36;76.82;101747.47;5054749;28;20361;-74
2021/08/18 09:38:04;;;;;;;19.58;5.50;;;;;;;17.32;75.33;101742.56;5051574;28;20044;-77
2021/08/18 09:40:33;;;;;;;8.70;4.82;;;;;;;17.33;76.37;101737.03;5034378;28;20033;-75
2021/08/18 09:43:10;;;;;;;11.05;5.00;;;;;;;17.33;75.42;101736.16;5044519;28;20535;-74
2021/08/18 09:45:39;;;;;;;10.82;5.13;;;;;;;17.42;75.06;101727.97;5054337;28;20033;-72
2021/08/18 09:48:09;;;;;;;12.57;4.60;;;;;;;17.53;74.89;101737.59;5054466;28;20415;-71
2021/08/18 09:50:40;;;;;;;10.68;5.18;;;;;;;17.75;74.15;101727.22;5051314;28;20067;-72
2021/08/18 09:53:11;;;;;;;13.77;4.78;;;;;;;17.91;73.21;101729.13;5054246;28;20033;-75
2021/08/18 09:55:39;;;;;;;12.55;4.80;;;;;;;18.03;72.26;101724.28;5053956;28;20041;-75
2021/08/18 09:58:18;;;;;;;10.82;4.43;;;;;;;18.09;71.95;101727.16;5049816;28;20106;-75
2021/08/18 10:00:44;;;;;;;12.98;4.90;;;;;;;18.23;72.85;101722.13;5049482;28;20049;-72
2021/08/18 10:03:11;;;;;;;13.23;4.80;;;;;;;18.48;70.52;101725.63;5053721;28;20041;-71
2021/08/18 10:05:37;;;;;;;9.23;4.35;;;;;;;18.82;70.29;101732.66;5054162;28;20035;-75
2021/08/18 10:08:03;;;;;;;9.40;4.68;;;;;;;18.98;68.06;101724.53;5068825;28;20451;-71
2021/08/18 10:10:28;;;;;;;12.93;4.93;;;;;;;19.00;68.88;101716.28;5053881;28;20044;-71
2021/08/18 10:12:54;;;;;;;11.00;4.20;;;;;;;19.24;68.32;101719.91;5067933;28;20473;-75
2021/08/18 10:15:19;;;;;;;8.45;4.00;;;;;;;19.51;65.66;101723.97;5051510;28;20060;-73
2021/08/18 10:17:45;;;;;;;6.10;3.83;;;;;;;19.66;66.56;101721.38;5053400;28;20476;-72
2021/08/18 10:20:10;;;;;;;9.20;4.18;;;;;;;19.63;65.19;101717.19;5053582;28;20021;-73
2021/08/18 10:22:36;;;;;;;8.88;3.40;;;;;;;19.56;64.97;101732.41;5053585;28;20151;-72
2021/08/18 10:25:34;;;;;;;6.25;3.72;;;;;;;19.35;65.34;101720.38;5053242;28;20078;-72
2021/08/18 10:28:00;;;;;;;8.43;3.92;;;;;;;19.22;65.00;101722.78;5051718;28;20021;-72
2021/08/18 10:30:27;;;;;;;5.15;3.50;;;;;;;19.24;66.78;101723.44;5053088;28;20045;-72
2021/08/18 10:32:52;;;;;;;7.88;4.00;;;;;;;19.01;67.19;101721.50;5044694;28;20051;-73
2021/08/18 10:35:36;;;;;;;10.32;4.30;;;;;;;19.00;68.27;101718.97;5050502;28;20040;-76
2021/08/18 10:38:23;;;;;;;12.75;4.00;;;;;;;19.35;67.31;101722.22;5050090;28;20492;-72
2021/08/18 10:40:48;;;;;;;6.85;3.78;;;;;;;20.04;65.79;101724.22;5065416;28;20043;-74
2021/08/18 10:43:59;;;;;;;9.23;2.80;;;;;;;20.85;63.04;101729.91;5050268;28;20033;-74
2021/08/18 10:46:25;;;;;;;8.13;3.72;;;;;;;20.81;60.37;101720.50;5045800;28;20045;-73
2021/08/18 10:48:53;;;;;;;6.18;3.47;;;;;;;20.55;60.72;101723.59;5049586;28;20433;-72
2021/08/18 10:51:40;;;;;;;5.93;3.53;;;;;;;20.98;62.11;101717.63;5050233;28;20082;-71
2021/08/18 10:54:27;;;;;;;9.57;3.53;;;;;;;20.82;60.35;101714.06;5050006;28;20351;-72
2021/08/18 10:56:57;;;;;;;7.18;3.50;;;;;;;20.73;61.02;101720.56;5049702;28;20083;-74
2021/08/18 10:59:34;;;;;;;5.50;3.47;;;;;;;21.23;60.72;101716.28;5050009;28;20474;-72
2021/08/18 11:02:00;;;;;;;7.75;3.45;;;;;;;21.59;60.15;101715.50;5049706;28;20231;-76
2021/08/18 11:04:45;;;;;;;12.68;3.50;;;;;;;21.45;57.61;101703.66;5050016;28;20503;-75
2021/08/18 11:07:12;;;;;;;5.10;3.45;;;;;;;22.11;55.66;101710.81;5049372;28;20033;-80
2021/08/18 11:09:49;;;;;;;10.80;3.20;;;;;;;22.17;56.14;101714.63;5048955;28;20432;-76
2021/08/18 11:12:38;;;;;;;7.28;3.13;;;;;;;21.97;56.32;101706.28;5049917;28;20037;-77
2021/08/18 11:15:19;;;;;;;8.55;2.97;;;;;;;22.99;54.63;101701.44;5049411;28;20036;-76
2021/08/18 11:17:48;;;;;;;4.03;2.67;;;;;;;23.62;50.74;101697.75;5049785;28;20033;-80
2021/08/18 11:20:22;;;;;;;10.10;2.92;;;;;;;23.27;50.81;101697.84;5047691;28;20419;-77
2021/08/18 11:23:06;;;;;;;5.00;2.97;;;;;;;23.15;49.39;101700.31;5049836;28;20091;-77
2021/08/18 11:25:41;;;;;;;8.73;3.15;;;;;;;22.81;52.47;101702.81;5050105;28;20029;-78